sensor_id;sensor_type;location;lat;lon;timestamp;pressure;altitude;pressure_sealevel;temperature
15544;BMP180;7873;52.230;12.856;2022-08-21T00:01:46;100851.72;;;25.58
15544;BMP180;7873;52.230;12.856;2022-08-21T00:04:13;100842.81;;;25.58
15544;BMP180;7873;52.230;12.856;2022-08-21T00:06:39;100840.94;;;25.58
15544;BMP180;7873;52.230;12.856;2022-08-21T00:09:07;100842.19;;;25.56
15544;BMP180;7873;52.230;12.856;2022-08-21T00:11:36;100841.31;;;25.55
15544;BMP180;7873;52.230;12.856;2022-08-21T00:14:03;100843.13;;;25.48
15544;BMP180;7873;52.230;12.856;2022-08-21T00:16:31;100838.38;;;25.50
15544;BMP180;7873;52.230;12.856;2022-08-21T00:18:59;100842.88;;;25.43
15544;BMP180;7873;52.230;12.856;2022-08-21T00:21:26;100844.53;;;25.44
15544;BMP180;7873;52.230;12.856;2022-08-21T00:23:53;100845.56;;;25.43
15544;BMP180;7873;52.230;12.856;2022-08-21T00:26:20;100847.63;;;25.41
15544;BMP180;7873;52.230;12.856;2022-08-21T00:28:46;100849.63;;;25.39
15544;BMP180;7873;52.230;12.856;2022-08-21T00:31:14;100847.41;;;25.43
15544;BMP180;7873;52.230;12.856;2022-08-21T00:33:42;100842.56;;;25.38
15544;BMP180;7873;52.230;12.856;2022-08-21T00:36:11;100848.94;;;25.31
15544;BMP180;7873;52.230;12.856;2022-08-21T00:38:38;100851.91;;;25.36
15544;BMP180;7873;52.230;12.856;2022-08-21T00:41:08;100853.09;;;25.33
15544;BMP180;7873;52.230;12.856;2022-08-21T00:43:37;100851.31;;;25.40
15544;BMP180;7873;52.230;12.856;2022-08-21T00:46:05;100849.38;;;25.34
15544;BMP180;7873;52.230;12.856;2022-08-21T00:48:33;100854.50;;;25.29
15544;BMP180;7873;52.230;12.856;2022-08-21T00:51:05;100851.63;;;25.31
15544;BMP180;7873;52.230;12.856;2022-08-21T00:53:35;100859.81;;;25.23
15544;BMP180;7873;52.230;12.856;2022-08-21T00:56:05;100849.22;;;25.21
15544;BMP180;7873;52.230;12.856;2022-08-21T00:58:33;100845.69;;;25.21
15544;BMP180;7873;52.230;12.856;2022-08-21T01:01:03;100845.91;;;25.19
15544;BMP180;7873;52.230;12.856;2022-08-21T01:03:30;100853.28;;;25.17
15544;BMP180;7873;52.230;12.856;2022-08-21T01:05:57;100843.47;;;25.24
15544;BMP180;7873;52.230;12.856;2022-08-21T01:08:24;100841.31;;;25.20
15544;BMP180;7873;52.230;12.856;2022-08-21T01:10:54;100834.25;;;25.19
15544;BMP180;7873;52.230;12.856;2022-08-21T01:13:23;100840.50;;;25.19
15544;BMP180;7873;52.230;12.856;2022-08-21T01:15:51;100842.50;;;25.17
15544;BMP180;7873;52.230;12.856;2022-08-21T01:18:20;100844.53;;;25.15
15544;BMP180;7873;52.230;12.856;2022-08-21T01:21:00;100855.69;;;25.12
15544;BMP180;7873;52.230;12.856;2022-08-21T01:23:27;100859.88;;;25.15
15544;BMP180;7873;52.230;12.856;2022-08-21T01:25:53;100847.22;;;25.15
15544;BMP180;7873;52.230;12.856;2022-08-21T01:28:21;100848.47;;;25.13
15544;BMP180;7873;52.230;12.856;2022-08-21T01:30:50;100847.34;;;25.07
15544;BMP180;7873;52.230;12.856;2022-08-21T01:33:18;100847.34;;;25.07
15544;BMP180;7873;52.230;12.856;2022-08-21T01:35:45;100846.31;;;25.08
15544;BMP180;7873;52.230;12.856;2022-08-21T01:38:13;100840.94;;;25.08
15544;BMP180;7873;52.230;12.856;2022-08-21T01:40:40;100841.59;;;25.10
15544;BMP180;7873;52.230;12.856;2022-08-21T01:43:07;100839.25;;;25.07
15544;BMP180;7873;52.230;12.856;2022-08-21T01:45:34;100839.16;;;25.01
15544;BMP180;7873;52.230;12.856;2022-08-21T01:48:00;100840.78;;;24.95
15544;BMP180;7873;52.230;12.856;2022-08-21T01:50:27;100844.94;;;24.98
15544;BMP180;7873;52.230;12.856;2022-08-21T01:52:54;100843.09;;;24.98
15544;BMP180;7873;52.230;12.856;2022-08-21T01:55:23;100838.53;;;24.99
15544;BMP180;7873;52.230;12.856;2022-08-21T01:57:50;100835.19;;;24.97
15544;BMP180;7873;52.230;12.856;2022-08-21T02:00:19;100840.69;;;24.89
15544;BMP180;7873;52.230;12.856;2022-08-21T02:02:48;100839.38;;;24.85
15544;BMP180;7873;52.230;12.856;2022-08-21T02:05:15;100835.66;;;24.86
15544;BMP180;7873;52.230;12.856;2022-08-21T02:07:47;100841.97;;;24.78
15544;BMP180;7873;52.230;12.856;2022-08-21T02:10:17;100847.38;;;24.78
15544;BMP180;7873;52.230;12.856;2022-08-21T02:12:46;100844.19;;;24.75
15544;BMP180;7873;52.230;12.856;2022-08-21T02:15:13;100835.75;;;24.63
15544;BMP180;7873;52.230;12.856;2022-08-21T02:17:43;100837.69;;;24.69
15544;BMP180;7873;52.230;12.856;2022-08-21T02:20:11;100841.22;;;24.70
15544;BMP180;7873;52.230;12.856;2022-08-21T02:22:38;100837.91;;;24.68
15544;BMP180;7873;52.230;12.856;2022-08-21T02:25:05;100839.56;;;24.69
15544;BMP180;7873;52.230;12.856;2022-08-21T02:27:37;100845.69;;;24.63
15544;BMP180;7873;52.230;12.856;2022-08-21T02:30:07;100838.91;;;24.67
15544;BMP180;7873;52.230;12.856;2022-08-21T02:32:34;100827.66;;;24.63
15544;BMP180;7873;52.230;12.856;2022-08-21T02:35:01;100833.69;;;24.65
15544;BMP180;7873;52.230;12.856;2022-08-21T02:37:27;100835.84;;;24.55
15544;BMP180;7873;52.230;12.856;2022-08-21T02:39:54;100848.38;;;24.63
15544;BMP180;7873;52.230;12.856;2022-08-21T02:42:21;100842.34;;;24.61
15544;BMP180;7873;52.230;12.856;2022-08-21T02:44:47;100842.41;;;24.53
15544;BMP180;7873;52.230;12.856;2022-08-21T02:47:15;100848.66;;;24.53
15544;BMP180;7873;52.230;12.856;2022-08-21T02:49:42;100844.66;;;24.64
15544;BMP180;7873;52.230;12.856;2022-08-21T02:52:09;100837.78;;;24.61
15544;BMP180;7873;52.230;12.856;2022-08-21T02:54:37;100841.97;;;24.64
15544;BMP180;7873;52.230;12.856;2022-08-21T02:57:03;100839.47;;;24.62
15544;BMP180;7873;52.230;12.856;2022-08-21T02:59:30;100844.84;;;24.62
15544;BMP180;7873;52.230;12.856;2022-08-21T03:01:57;100841.13;;;24.63
15544;BMP180;7873;52.230;12.856;2022-08-21T03:04:25;100835.94;;;24.62
15544;BMP180;7873;52.230;12.856;2022-08-21T03:06:52;100837.78;;;24.61
15544;BMP180;7873;52.230;12.856;2022-08-21T03:09:18;100828.88;;;24.61
15544;BMP180;7873;52.230;12.856;2022-08-21T03:11:45;100842.34;;;24.61
15544;BMP180;7873;52.230;12.856;2022-08-21T03:14:12;100838.81;;;24.60
15544;BMP180;7873;52.230;12.856;2022-08-21T03:16:39;100836.13;;;24.60
15544;BMP180;7873;52.230;12.856;2022-08-21T03:19:06;100834.63;;;24.58
15544;BMP180;7873;52.230;12.856;2022-08-21T03:21:34;100841.22;;;24.55
15544;BMP180;7873;52.230;12.856;2022-08-21T03:24:01;100830.47;;;24.55
15544;BMP180;7873;52.230;12.856;2022-08-21T03:26:27;100835.53;;;24.50
15544;BMP180;7873;52.230;12.856;2022-08-21T03:28:54;100828.31;;;24.51
15544;BMP180;7873;52.230;12.856;2022-08-21T03:31:21;100834.69;;;24.50
15544;BMP180;7873;52.230;12.856;2022-08-21T03:33:48;100831.00;;;24.51
15544;BMP180;7873;52.230;12.856;2022-08-21T03:36:16;100829.97;;;24.52
15544;BMP180;7873;52.230;12.856;2022-08-21T03:38:44;100823.78;;;24.51
15544;BMP180;7873;52.230;12.856;2022-08-21T03:41:11;100827.47;;;24.50
15544;BMP180;7873;52.230;12.856;2022-08-21T03:43:38;100830.16;;;24.50
15544;BMP180;7873;52.230;12.856;2022-08-21T03:46:06;100825.97;;;24.48
15544;BMP180;7873;52.230;12.856;2022-08-21T03:48:34;100826.50;;;24.43
15544;BMP180;7873;52.230;12.856;2022-08-21T03:51:02;100836.06;;;24.46
15544;BMP180;7873;52.230;12.856;2022-08-21T03:53:29;100831.72;;;24.45
15544;BMP180;7873;52.230;12.856;2022-08-21T03:55:58;100827.50;;;24.42
15544;BMP180;7873;52.230;12.856;2022-08-21T03:58:27;100832.53;;;24.45
15544;BMP180;7873;52.230;12.856;2022-08-21T04:00:56;100833.56;;;24.44
15544;BMP180;7873;52.230;12.856;2022-08-21T04:03:23;100839.59;;;24.46
15544;BMP180;7873;52.230;12.856;2022-08-21T04:05:50;100842.19;;;24.40
15544;BMP180;7873;52.230;12.856;2022-08-21T04:08:17;100846.09;;;24.37
15544;BMP180;7873;52.230;12.856;2022-08-21T04:10:47;100855.34;;;24.35
15544;BMP180;7873;52.230;12.856;2022-08-21T04:13:16;100860.94;;;24.33
15544;BMP180;7873;52.230;12.856;2022-08-21T04:15:43;100855.72;;;24.32
15544;BMP180;7873;52.230;12.856;2022-08-21T04:18:10;100852.00;;;24.33
15544;BMP180;7873;52.230;12.856;2022-08-21T04:20:37;100853.03;;;24.32
15544;BMP180;7873;52.230;12.856;2022-08-21T04:23:05;100861.28;;;24.30
15544;BMP180;7873;52.230;12.856;2022-08-21T04:25:31;100867.69;;;24.29
15544;BMP180;7873;52.230;12.856;2022-08-21T04:27:58;100863.03;;;24.23
15544;BMP180;7873;52.230;12.856;2022-08-21T04:30:26;100864.03;;;24.22
15544;BMP180;7873;52.230;12.856;2022-08-21T04:32:53;100860.69;;;24.20
15544;BMP180;7873;52.230;12.856;2022-08-21T04:35:21;100856.16;;;24.21
15544;BMP180;7873;52.230;12.856;2022-08-21T04:37:48;100857.63;;;24.23
15544;BMP180;7873;52.230;12.856;2022-08-21T04:40:17;100860.16;;;24.25
15544;BMP180;7873;52.230;12.856;2022-08-21T04:42:46;100863.22;;;24.22
15544;BMP180;7873;52.230;12.856;2022-08-21T04:45:19;100860.53;;;24.22
15544;BMP180;7873;52.230;12.856;2022-08-21T04:47:50;100865.06;;;24.21
15544;BMP180;7873;52.230;12.856;2022-08-21T04:50:18;100866.00;;;24.14
15544;BMP180;7873;52.230;12.856;2022-08-21T04:52:45;100872.34;;;24.13
15544;BMP180;7873;52.230;12.856;2022-08-21T04:55:12;100871.69;;;24.11
15544;BMP180;7873;52.230;12.856;2022-08-21T04:57:39;100872.19;;;24.14
15544;BMP180;7873;52.230;12.856;2022-08-21T05:00:08;100873.56;;;24.10
15544;BMP180;7873;52.230;12.856;2022-08-21T05:02:39;100871.91;;;24.09
15544;BMP180;7873;52.230;12.856;2022-08-21T05:05:07;100876.63;;;24.07
15544;BMP180;7873;52.230;12.856;2022-08-21T05:07:34;100878.31;;;24.08
15544;BMP180;7873;52.230;12.856;2022-08-21T05:10:03;100878.47;;;24.07
15544;BMP180;7873;52.230;12.856;2022-08-21T05:12:31;100883.50;;;24.10
15544;BMP180;7873;52.230;12.856;2022-08-21T05:14:58;100883.50;;;24.10
15544;BMP180;7873;52.230;12.856;2022-08-21T05:17:25;100885.16;;;24.11
15544;BMP180;7873;52.230;12.856;2022-08-21T05:19:52;100883.50;;;24.10
15544;BMP180;7873;52.230;12.856;2022-08-21T05:22:21;100891.19;;;24.13
15544;BMP180;7873;52.230;12.856;2022-08-21T05:24:49;100878.75;;;24.12
15544;BMP180;7873;52.230;12.856;2022-08-21T05:27:16;100882.13;;;24.14
15544;BMP180;7873;52.230;12.856;2022-08-21T05:29:43;100880.34;;;24.06
15544;BMP180;7873;52.230;12.856;2022-08-21T05:32:10;100894.81;;;24.05
15544;BMP180;7873;52.230;12.856;2022-08-21T05:34:37;100884.41;;;24.02
15544;BMP180;7873;52.230;12.856;2022-08-21T05:37:04;100885.41;;;24.01
15544;BMP180;7873;52.230;12.856;2022-08-21T05:39:32;100888.09;;;24.01
15544;BMP180;7873;52.230;12.856;2022-08-21T05:41:59;100886.25;;;24.02
15544;BMP180;7873;52.230;12.856;2022-08-21T05:44:26;100887.91;;;24.03
15544;BMP180;7873;52.230;12.856;2022-08-21T05:46:52;100895.34;;;24.01
15544;BMP180;7873;52.230;12.856;2022-08-21T05:49:19;100894.84;;;23.97
15544;BMP180;7873;52.230;12.856;2022-08-21T05:51:46;100892.81;;;23.99
15544;BMP180;7873;52.230;12.856;2022-08-21T05:54:12;100890.84;;;23.93
15544;BMP180;7873;52.230;12.856;2022-08-21T05:56:40;100895.56;;;23.91
15544;BMP180;7873;52.230;12.856;2022-08-21T05:59:10;100894.38;;;23.94
15544;BMP180;7873;52.230;12.856;2022-08-21T06:01:39;100903.78;;;23.98
15544;BMP180;7873;52.230;12.856;2022-08-21T06:04:06;100900.88;;;23.99
15544;BMP180;7873;52.230;12.856;2022-08-21T06:06:33;100900.59;;;23.94
15544;BMP180;7873;52.230;12.856;2022-08-21T06:09:00;100898.38;;;23.98
15544;BMP180;7873;52.230;12.856;2022-08-21T06:11:27;100903.13;;;23.96
15544;BMP180;7873;52.230;12.856;2022-08-21T06:13:55;100901.44;;;23.95
15544;BMP180;7873;52.230;12.856;2022-08-21T06:16:22;100898.56;;;23.96
15544;BMP180;7873;52.230;12.856;2022-08-21T06:18:49;100902.91;;;23.97
15544;BMP180;7873;52.230;12.856;2022-08-21T06:21:15;100895.34;;;24.01
15544;BMP180;7873;52.230;12.856;2022-08-21T06:23:43;100901.22;;;24.04
15544;BMP180;7873;52.230;12.856;2022-08-21T06:26:11;100894.38;;;24.16
15544;BMP180;7873;52.230;12.856;2022-08-21T06:28:39;100894.63;;;24.29
15544;BMP180;7873;52.230;12.856;2022-08-21T06:31:12;100891.84;;;24.37
15544;BMP180;7873;52.230;12.856;2022-08-21T06:33:40;100895.47;;;24.44
15544;BMP180;7873;52.230;12.856;2022-08-21T06:36:07;100903.19;;;24.47
15544;BMP180;7873;52.230;12.856;2022-08-21T06:38:34;100910.25;;;24.48
15544;BMP180;7873;52.230;12.856;2022-08-21T06:41:01;100913.13;;;24.47
15544;BMP180;7873;52.230;12.856;2022-08-21T06:43:28;100912.19;;;24.40
15544;BMP180;7873;52.230;12.856;2022-08-21T06:45:54;100911.34;;;24.39
15544;BMP180;7873;52.230;12.856;2022-08-21T06:48:22;100914.31;;;24.44
15544;BMP180;7873;52.230;12.856;2022-08-21T06:50:49;100907.56;;;24.48
15544;BMP180;7873;52.230;12.856;2022-08-21T06:53:19;100907.88;;;24.53
15544;BMP180;7873;52.230;12.856;2022-08-21T06:55:46;100900.75;;;24.60
15544;BMP180;7873;52.230;12.856;2022-08-21T06:58:14;100893.59;;;24.67
15544;BMP180;7873;52.230;12.856;2022-08-21T07:00:43;100900.66;;;24.68
15544;BMP180;7873;52.230;12.856;2022-08-21T07:03:16;100904.69;;;24.72
15544;BMP180;7873;52.230;12.856;2022-08-21T07:05:44;100904.31;;;24.75
15544;BMP180;7873;52.230;12.856;2022-08-21T07:08:11;100898.53;;;24.78
15544;BMP180;7873;52.230;12.856;2022-08-21T07:10:37;100901.88;;;24.80
15544;BMP180;7873;52.230;12.856;2022-08-21T07:13:04;100898.53;;;24.78
15544;BMP180;7873;52.230;12.856;2022-08-21T07:15:31;100902.44;;;24.76
15544;BMP180;7873;52.230;12.856;2022-08-21T07:17:59;100902.44;;;24.76
15544;BMP180;7873;52.230;12.856;2022-08-21T07:20:27;100905.41;;;24.81
15544;BMP180;7873;52.230;12.856;2022-08-21T07:22:56;100906.06;;;24.83
15544;BMP180;7873;52.230;12.856;2022-08-21T07:25:23;100905.06;;;24.84
15544;BMP180;7873;52.230;12.856;2022-08-21T07:27:50;100897.41;;;24.87
15544;BMP180;7873;52.230;12.856;2022-08-21T07:30:17;100897.03;;;24.90
15544;BMP180;7873;52.230;12.856;2022-08-21T07:32:44;100890.63;;;24.91
15544;BMP180;7873;52.230;12.856;2022-08-21T07:35:11;100895.00;;;24.92
15544;BMP180;7873;52.230;12.856;2022-08-21T07:37:37;100898.56;;;24.93
15544;BMP180;7873;52.230;12.856;2022-08-21T07:40:07;100900.22;;;24.94
15544;BMP180;7873;52.230;12.856;2022-08-21T07:42:33;100892.78;;;24.96
15544;BMP180;7873;52.230;12.856;2022-08-21T07:45:00;100894.28;;;24.98
15544;BMP180;7873;52.230;12.856;2022-08-21T07:47:27;100893.34;;;24.91
15544;BMP180;7873;52.230;12.856;2022-08-21T07:49:53;100894.94;;;24.86
15544;BMP180;7873;52.230;12.856;2022-08-21T07:52:20;100889.34;;;24.87
15544;BMP180;7873;52.230;12.856;2022-08-21T07:54:47;100889.81;;;24.91
15544;BMP180;7873;52.230;12.856;2022-08-21T07:57:15;100889.44;;;24.94
15544;BMP180;7873;52.230;12.856;2022-08-21T07:59:42;100882.00;;;24.96
15544;BMP180;7873;52.230;12.856;2022-08-21T08:02:08;100889.91;;;24.97
15544;BMP180;7873;52.230;12.856;2022-08-21T08:11:19;100871.41;;;24.94
15544;BMP180;7873;52.230;12.856;2022-08-21T08:13:52;100883.69;;;24.97
15544;BMP180;7873;52.230;12.856;2022-08-21T08:16:19;100877.91;;;25.00
15544;BMP180;7873;52.230;12.856;2022-08-21T08:18:47;100870.69;;;25.00
15544;BMP180;7873;52.230;12.856;2022-08-21T08:21:14;100877.38;;;25.04
15544;BMP180;7873;52.230;12.856;2022-08-21T08:23:46;100873.00;;;25.03
15544;BMP180;7873;52.230;12.856;2022-08-21T08:26:13;100868.44;;;25.04
15544;BMP180;7873;52.230;12.856;2022-08-21T08:28:41;100872.78;;;25.05
15544;BMP180;7873;52.230;12.856;2022-08-21T08:31:09;100865.75;;;25.04
15544;BMP180;7873;52.230;12.856;2022-08-21T08:33:36;100872.78;;;25.05
15544;BMP180;7873;52.230;12.856;2022-08-21T08:36:03;100876.34;;;25.05
15544;BMP180;7873;52.230;12.856;2022-08-21T08:38:30;100881.56;;;25.07
15544;BMP180;7873;52.230;12.856;2022-08-21T08:41:02;100878.19;;;25.05
15544;BMP180;7873;52.230;12.856;2022-08-21T08:43:32;100896.72;;;25.08
15544;BMP180;7873;52.230;12.856;2022-08-21T08:46:03;100893.16;;;25.07
15544;BMP180;7873;52.230;12.856;2022-08-21T08:48:47;100884.25;;;25.07
15544;BMP180;7873;52.230;12.856;2022-08-21T08:51:19;100892.97;;;25.09
15544;BMP180;7873;52.230;12.856;2022-08-21T08:53:50;100892.13;;;25.08
15544;BMP180;7873;52.230;12.856;2022-08-21T08:56:27;100890.28;;;25.09
15544;BMP180;7873;52.230;12.856;2022-08-21T08:58:59;100888.63;;;25.08
15544;BMP180;7873;52.230;12.856;2022-08-21T09:01:26;100880.34;;;25.09
15544;BMP180;7873;52.230;12.856;2022-08-21T09:03:56;100888.78;;;25.06
15544;BMP180;7873;52.230;12.856;2022-08-21T09:06:37;100885.56;;;24.96
15544;BMP180;7873;52.230;12.856;2022-08-21T09:09:22;100878.03;;;24.92
15544;BMP180;7873;52.230;12.856;2022-08-21T09:11:57;100879.22;;;24.89
15544;BMP180;7873;52.230;12.856;2022-08-21T09:14:32;100880.25;;;24.88
15544;BMP180;7873;52.230;12.856;2022-08-21T09:17:15;100875.69;;;24.89
15544;BMP180;7873;52.230;12.856;2022-08-21T09:19:57;100879.88;;;24.91
15544;BMP180;7873;52.230;12.856;2022-08-21T09:22:32;100875.44;;;24.84
15544;BMP180;7873;52.230;12.856;2022-08-21T09:25:10;100874.94;;;24.80
15544;BMP180;7873;52.230;12.856;2022-08-21T09:27:38;100879.13;;;24.83
15544;BMP180;7873;52.230;12.856;2022-08-21T09:30:06;100873.56;;;24.84
15544;BMP180;7873;52.230;12.856;2022-08-21T09:32:36;100868.66;;;24.88
15544;BMP180;7873;52.230;12.856;2022-08-21T09:35:07;100872.34;;;24.87
15544;BMP180;7873;52.230;12.856;2022-08-21T09:37:45;100879.13;;;24.83
15544;BMP180;7873;52.230;12.856;2022-08-21T09:40:21;100876.06;;;24.86
15544;BMP180;7873;52.230;12.856;2022-08-21T09:42:56;100871.41;;;24.80
15544;BMP180;7873;52.230;12.856;2022-08-21T09:45:23;100871.78;;;24.77
15544;BMP180;7873;52.230;12.856;2022-08-21T09:47:49;100873.66;;;24.76
15544;BMP180;7873;52.230;12.856;2022-08-21T09:50:21;100884.13;;;24.71
15544;BMP180;7873;52.230;12.856;2022-08-21T09:59:33;100882.56;;;24.77
15544;BMP180;7873;52.230;12.856;2022-08-21T10:02:07;100887.13;;;24.76
15544;BMP180;7873;52.230;12.856;2022-08-21T10:04:49;100874.69;;;24.75
15544;BMP180;7873;52.230;12.856;2022-08-21T10:07:21;100874.41;;;24.85
15544;BMP180;7873;52.230;12.856;2022-08-21T10:09:58;100876.78;;;24.94
15544;BMP180;7873;52.230;12.856;2022-08-21T10:12:29;100877.09;;;24.99
15544;BMP180;7873;52.230;12.856;2022-08-21T10:15:03;100871.13;;;25.04
15544;BMP180;7873;52.230;12.856;2022-08-21T10:17:38;100873.81;;;25.04
15544;BMP180;7873;52.230;12.856;2022-08-21T10:20:15;100864.16;;;25.09
15544;BMP180;7873;52.230;12.856;2022-08-21T10:22:48;100862.75;;;25.13
15544;BMP180;7873;52.230;12.856;2022-08-21T10:25:21;100866.94;;;25.16
15544;BMP180;7873;52.230;12.856;2022-08-21T10:27:56;100874.50;;;25.20
15544;BMP180;7873;52.230;12.856;2022-08-21T10:30:36;100869.38;;;25.25
15544;BMP180;7873;52.230;12.856;2022-08-21T10:33:16;100864.25;;;25.30
15544;BMP180;7873;52.230;12.856;2022-08-21T10:35:51;100866.78;;;25.32
15544;BMP180;7873;52.230;12.856;2022-08-21T10:38:44;100866.78;;;25.32
15544;BMP180;7873;52.230;12.856;2022-08-21T10:41:20;100871.41;;;25.38
15544;BMP180;7873;52.230;12.856;2022-08-21T10:43:56;100866.84;;;25.38
15544;BMP180;7873;52.230;12.856;2022-08-21T10:46:34;100855.88;;;25.40
15544;BMP180;7873;52.230;12.856;2022-08-21T10:49:17;100861.75;;;25.43
15544;BMP180;7873;52.230;12.856;2022-08-21T10:51:52;100860.50;;;25.46
15544;BMP180;7873;52.230;12.856;2022-08-21T10:54:29;100865.91;;;25.46
15544;BMP180;7873;52.230;12.856;2022-08-21T10:57:02;100864.88;;;25.47
15544;BMP180;7873;52.230;12.856;2022-08-21T10:59:33;100870.09;;;25.48
15544;BMP180;7873;52.230;12.856;2022-08-21T11:02:18;100864.31;;;25.51
15544;BMP180;7873;52.230;12.856;2022-08-21T11:04:53;100866.84;;;25.53
15544;BMP180;7873;52.230;12.856;2022-08-21T11:07:26;100861.44;;;25.53
15544;BMP180;7873;52.230;12.856;2022-08-21T11:09:58;100861.63;;;25.51
15544;BMP180;7873;52.230;12.856;2022-08-21T11:12:40;100861.63;;;25.51
15544;BMP180;7873;52.230;12.856;2022-08-21T11:15:18;100862.19;;;25.47
15544;BMP180;7873;52.230;12.856;2022-08-21T11:17:52;100857.63;;;25.47
15544;BMP180;7873;52.230;12.856;2022-08-21T11:20:27;100862.09;;;25.40
15544;BMP180;7873;52.230;12.856;2022-08-21T11:22:58;100859.59;;;25.39
15544;BMP180;7873;52.230;12.856;2022-08-21T11:25:34;100857.94;;;25.38
15544;BMP180;7873;52.230;12.856;2022-08-21T11:28:06;100857.94;;;25.38
15544;BMP180;7873;52.230;12.856;2022-08-21T11:30:40;100853.75;;;25.35
15544;BMP180;7873;52.230;12.856;2022-08-21T11:33:23;100860.81;;;25.36
15544;BMP180;7873;52.230;12.856;2022-08-21T11:35:57;100855.63;;;25.35
15544;BMP180;7873;52.230;12.856;2022-08-21T11:38:40;100865.00;;;25.39
15544;BMP180;7873;52.230;12.856;2022-08-21T11:41:26;100858.19;;;25.43
15544;BMP180;7873;52.230;12.856;2022-08-21T11:44:02;100860.06;;;25.42
15544;BMP180;7873;52.230;12.856;2022-08-21T11:46:36;100853.47;;;25.30
15544;BMP180;7873;52.230;12.856;2022-08-21T11:49:17;100853.59;;;25.22
15544;BMP180;7873;52.230;12.856;2022-08-21T11:51:53;100850.13;;;25.28
15544;BMP180;7873;52.230;12.856;2022-08-21T11:54:26;100856.81;;;25.32
15544;BMP180;7873;52.230;12.856;2022-08-21T11:57:01;100845.66;;;25.35
15544;BMP180;7873;52.230;12.856;2022-08-21T11:59:38;100850.88;;;25.37
15544;BMP180;7873;52.230;12.856;2022-08-21T12:02:10;100855.25;;;25.38
15544;BMP180;7873;52.230;12.856;2022-08-21T12:04:44;100850.22;;;25.35
15544;BMP180;7873;52.230;12.856;2022-08-21T12:07:14;100846.88;;;25.33
15544;BMP180;7873;52.230;12.856;2022-08-21T12:09:52;100839.81;;;25.32
15544;BMP180;7873;52.230;12.856;2022-08-21T12:12:31;100838.81;;;25.33
15544;BMP180;7873;52.230;12.856;2022-08-21T12:15:13;100836.09;;;25.33
15544;BMP180;7873;52.230;12.856;2022-08-21T12:17:54;100838.41;;;25.36
15544;BMP180;7873;52.230;12.856;2022-08-21T12:20:37;100843.59;;;25.37
15544;BMP180;7873;52.230;12.856;2022-08-21T12:29:52;100833.41;;;25.33
15544;BMP180;7873;52.230;12.856;2022-08-21T12:32:27;100844.19;;;25.33
15544;BMP180;7873;52.230;12.856;2022-08-21T12:35:00;100836.28;;;25.31
15544;BMP180;7873;52.230;12.856;2022-08-21T12:37:36;100834.44;;;25.32
15544;BMP180;7873;52.230;12.856;2022-08-21T12:40:10;100831.75;;;25.32
15544;BMP180;7873;52.230;12.856;2022-08-21T12:42:40;100828.03;;;25.33
15544;BMP180;7873;52.230;12.856;2022-08-21T12:45:18;100823.06;;;25.36
15544;BMP180;7873;52.230;12.856;2022-08-21T12:47:48;100819.72;;;25.34
15544;BMP180;7873;52.230;12.856;2022-08-21T12:50:20;100825.75;;;25.36
15544;BMP180;7873;52.230;12.856;2022-08-21T12:52:53;100823.91;;;25.37
15544;BMP180;7873;52.230;12.856;2022-08-21T12:55:26;100826.59;;;25.37
15544;BMP180;7873;52.230;12.856;2022-08-21T12:57:53;100826.34;;;25.32
15544;BMP180;7873;52.230;12.856;2022-08-21T13:00:23;100822.25;;;25.36
15544;BMP180;7873;52.230;12.856;2022-08-21T13:02:52;100811.47;;;25.36
15544;BMP180;7873;52.230;12.856;2022-08-21T13:05:27;100818.69;;;25.35
15544;BMP180;7873;52.230;12.856;2022-08-21T13:07:54;100806.44;;;25.33
15544;BMP180;7873;52.230;12.856;2022-08-21T13:10:24;100813.31;;;25.35
15544;BMP180;7873;52.230;12.856;2022-08-21T13:23:02;100818.19;;;25.25
15544;BMP180;7873;52.230;12.856;2022-08-21T13:25:33;100821.69;;;25.26
15544;BMP180;7873;52.230;12.856;2022-08-21T13:28:05;100818.25;;;25.32
15544;BMP180;7873;52.230;12.856;2022-08-21T13:30:33;100820.31;;;25.30
15544;BMP180;7873;52.230;12.856;2022-08-21T13:33:05;100816.78;;;25.29
15544;BMP180;7873;52.230;12.856;2022-08-21T13:35:36;100817.41;;;25.31
15544;BMP180;7873;52.230;12.856;2022-08-21T13:38:14;100818.25;;;25.32
15544;BMP180;7873;52.230;12.856;2022-08-21T13:40:45;100820.56;;;25.35
15544;BMP180;7873;52.230;12.856;2022-08-21T13:43:14;100816.66;;;25.37
15544;BMP180;7873;52.230;12.856;2022-08-21T13:45:46;100817.50;;;25.38
15544;BMP180;7873;52.230;12.856;2022-08-21T13:48:13;100816.47;;;25.39
15544;BMP180;7873;52.230;12.856;2022-08-21T13:50:41;100809.41;;;25.38
15544;BMP180;7873;52.230;12.856;2022-08-21T13:53:28;100809.03;;;25.41
15544;BMP180;7873;52.230;12.856;2022-08-21T13:55:56;100807.34;;;25.40
15544;BMP180;7873;52.230;12.856;2022-08-21T13:58:25;100806.16;;;25.42
15544;BMP180;7873;52.230;12.856;2022-08-21T14:00:53;100810.88;;;25.40
15544;BMP180;7873;52.230;12.856;2022-08-21T14:03:32;100804.66;;;25.40
15544;BMP180;7873;52.230;12.856;2022-08-21T14:06:00;100802.78;;;25.40
15544;BMP180;7873;52.230;12.856;2022-08-21T14:08:33;100807.53;;;25.38
15544;BMP180;7873;52.230;12.856;2022-08-21T14:11:02;100807.34;;;25.40
15544;BMP180;7873;52.230;12.856;2022-08-21T14:13:35;100805.47;;;25.40
15544;BMP180;7873;52.230;12.856;2022-08-21T14:16:11;100804.19;;;25.36
15544;BMP180;7873;52.230;12.856;2022-08-21T14:18:44;100798.38;;;25.33
15544;BMP180;7873;52.230;12.856;2022-08-21T14:21:11;100801.44;;;25.30
15544;BMP180;7873;52.230;12.856;2022-08-21T14:23:40;100800.59;;;25.29
15544;BMP180;7873;52.230;12.856;2022-08-21T14:26:08;100805.59;;;25.32
15544;BMP180;7873;52.230;12.856;2022-08-21T14:28:39;100798.06;;;25.28
15544;BMP180;7873;52.230;12.856;2022-08-21T14:31:15;100803.56;;;25.34
15544;BMP180;7873;52.230;12.856;2022-08-21T14:33:42;100797.34;;;25.34
15544;BMP180;7873;52.230;12.856;2022-08-21T14:36:09;100794.00;;;25.32
15544;BMP180;7873;52.230;12.856;2022-08-21T14:38:38;100800.28;;;25.39
15544;BMP180;7873;52.230;12.856;2022-08-21T14:41:13;100800.81;;;25.49
15544;BMP180;7873;52.230;12.856;2022-08-21T14:53:48;100792.47;;;25.64